This is the latest recevied weather packets stored in our database for station/object KD7JB. If no packets are shown the sender has not sent any weather packets the latest 1 day(s).
| Time | Temp. | Humidity | Pressure | Rain* | Wind** | Luminosity | Snow |
|---|---|---|---|---|---|---|---|
| 1778029342 | 21.11° C | 39% | 1173.6 hPa | 0 mm | 2.68 m/s, 265° | 202 W/m² | - |
| 1778029040 | 20° C | 45% | 1174 hPa | 0 mm | 0.89 m/s, 264° | 207 W/m² | - |
| 1778028736 | 20° C | 44% | 1173.8 hPa | 0 mm | 2.68 m/s, 263° | 161 W/m² | - |
| 1778028432 | 20° C | 44% | 1174 hPa | 0 mm | 2.24 m/s, 296° | 88 W/m² | - |
| 1778028130 | 20° C | 44% | 1173.9 hPa | 0 mm | 1.34 m/s, 265° | 75 W/m² | - |
| 1778027826 | 20° C | 44% | 1173.9 hPa | 0 mm | 0.89 m/s, 288° | 197 W/m² | - |
| 1778027522 | 19.44° C | 45% | 1173.9 hPa | 0 mm | 0.45 m/s, 331° | 136 W/m² | - |
| 1778027218 | 20.56° C | 41% | 1173.8 hPa | 0 mm | 3.58 m/s, 266° | 59 W/m² | - |
| 1778026915 | 21.11° C | 43% | 1174 hPa | 0 mm | 1.79 m/s, 280° | 303 W/m² | - |
| 1778026610 | 21.11° C | 43% | 1174 hPa | 0 mm | 1.79 m/s, 211° | 315 W/m² | - |
| 1778026308 | 20.56° C | 43% | 1174 hPa | 0 mm | 3.58 m/s, 268° | 338 W/m² | - |
| 1778026005 | 20.56° C | 44% | 1173.9 hPa | 0 mm | 1.34 m/s, 328° | 343 W/m² | - |
| 1778025702 | 21.11° C | 43% | 1174.3 hPa | 0 mm | 2.68 m/s, 270° | 352 W/m² | - |
| 1778025400 | 21.11° C | 42% | 1174.3 hPa | 0 mm | 2.68 m/s, 247° | 365 W/m² | - |
| 1778025097 | 21.11° C | 43% | 1174.3 hPa | 0 mm | 1.79 m/s, 197° | 380 W/m² | - |
| 1778024794 | 21.11° C | 43% | 1174.3 hPa | 0 mm | 2.68 m/s, 182° | 402 W/m² | - |
| 1778024491 | 21.11° C | 44% | 1174.3 hPa | 0 mm | 3.58 m/s, 214° | 409 W/m² | - |
| 1778024188 | 21.11° C | 42% | 1174.3 hPa | 0 mm | 1.34 m/s, 302° | 424 W/m² | - |
| 1778023886 | 20.56° C | 43% | 1174.4 hPa | 0 mm | 0.89 m/s, 230° | 446 W/m² | - |
| 1778023583 | 20° C | 45% | 1174.5 hPa | 0 mm | 2.24 m/s, 251° | 484 W/m² | - |
| 1778023280 | 21.11° C | 41% | 1174.5 hPa | 0 mm | 2.68 m/s, 305° | 494 W/m² | - |
| 1778022977 | 20.56° C | 43% | 1174.5 hPa | 0 mm | 1.79 m/s, 241° | 482 W/m² | - |
| 1778022676 | 21.11° C | 43% | 1174.5 hPa | 0 mm | 3.13 m/s, 188° | 488 W/m² | - |
| 1778022374 | 21.11° C | 42% | 1174.7 hPa | 0 mm | 1.79 m/s, 243° | 505 W/m² | - |
| 1778022069 | 20.56° C | 43% | 1174.5 hPa | 0 mm | 3.13 m/s, 265° | 531 W/m² | - |
* Rain latest hour (hover to see other rain measurements)
** Current wind speed in m/s (hover to see current wind gust speed)